sensor_id;sensor_type;location;lat;lon;timestamp;P1;durP1;ratioP1;P2;durP2;ratioP2
34278;SDS011;20538;51.528;9.942;2022-08-19T00:00:01;27.13;;;18.42;;
34278;SDS011;20538;51.528;9.942;2022-08-19T00:02:32;25.55;;;17.67;;
34278;SDS011;20538;51.528;9.942;2022-08-19T00:04:58;25.73;;;17.55;;
34278;SDS011;20538;51.528;9.942;2022-08-19T00:07:24;27.48;;;17.55;;
34278;SDS011;20538;51.528;9.942;2022-08-19T00:09:49;24.63;;;15.70;;
34278;SDS011;20538;51.528;9.942;2022-08-19T00:12:15;27.92;;;17.10;;
34278;SDS011;20538;51.528;9.942;2022-08-19T00:14:41;25.92;;;15.27;;
34278;SDS011;20538;51.528;9.942;2022-08-19T00:17:07;23.83;;;15.13;;
34278;SDS011;20538;51.528;9.942;2022-08-19T00:19:33;19.73;;;13.75;;
34278;SDS011;20538;51.528;9.942;2022-08-19T00:22:00;19.42;;;13.55;;
34278;SDS011;20538;51.528;9.942;2022-08-19T00:24:27;24.73;;;13.40;;
34278;SDS011;20538;51.528;9.942;2022-08-19T00:26:54;26.02;;;14.48;;
34278;SDS011;20538;51.528;9.942;2022-08-19T00:29:21;23.02;;;13.68;;
34278;SDS011;20538;51.528;9.942;2022-08-19T00:31:49;26.30;;;13.73;;
34278;SDS011;20538;51.528;9.942;2022-08-19T00:34:18;20.58;;;13.02;;
34278;SDS011;20538;51.528;9.942;2022-08-19T00:36:44;18.17;;;12.77;;
34278;SDS011;20538;51.528;9.942;2022-08-19T00:39:11;23.15;;;13.45;;
34278;SDS011;20538;51.528;9.942;2022-08-19T00:41:39;24.40;;;12.48;;
34278;SDS011;20538;51.528;9.942;2022-08-19T00:44:07;20.10;;;11.90;;
34278;SDS011;20538;51.528;9.942;2022-08-19T00:46:33;18.42;;;11.65;;
34278;SDS011;20538;51.528;9.942;2022-08-19T00:49:02;21.15;;;12.05;;
34278;SDS011;20538;51.528;9.942;2022-08-19T00:51:34;22.33;;;11.93;;
34278;SDS011;20538;51.528;9.942;2022-08-19T00:54:01;28.23;;;12.38;;
34278;SDS011;20538;51.528;9.942;2022-08-19T00:56:28;18.67;;;12.57;;
34278;SDS011;20538;51.528;9.942;2022-08-19T00:58:56;15.00;;;11.00;;
34278;SDS011;20538;51.528;9.942;2022-08-19T01:01:23;18.02;;;10.80;;
34278;SDS011;20538;51.528;9.942;2022-08-19T01:03:49;22.30;;;11.23;;
34278;SDS011;20538;51.528;9.942;2022-08-19T01:06:15;17.75;;;10.75;;
34278;SDS011;20538;51.528;9.942;2022-08-19T01:08:41;15.35;;;10.20;;
34278;SDS011;20538;51.528;9.942;2022-08-19T01:11:06;18.15;;;10.55;;
34278;SDS011;20538;51.528;9.942;2022-08-19T01:13:33;19.13;;;11.38;;
34278;SDS011;20538;51.528;9.942;2022-08-19T01:16:02;22.52;;;10.43;;
34278;SDS011;20538;51.528;9.942;2022-08-19T01:18:30;19.50;;;10.77;;
34278;SDS011;20538;51.528;9.942;2022-08-19T01:20:58;20.58;;;11.13;;
34278;SDS011;20538;51.528;9.942;2022-08-19T01:23:39;17.58;;;11.32;;
34278;SDS011;20538;51.528;9.942;2022-08-19T01:26:09;16.50;;;10.10;;
34278;SDS011;20538;51.528;9.942;2022-08-19T01:28:38;14.27;;;10.00;;
34278;SDS011;20538;51.528;9.942;2022-08-19T01:31:04;17.58;;;10.90;;
34278;SDS011;20538;51.528;9.942;2022-08-19T01:33:30;16.45;;;11.10;;
34278;SDS011;20538;51.528;9.942;2022-08-19T01:36:06;18.10;;;11.00;;
34278;SDS011;20538;51.528;9.942;2022-08-19T01:38:36;15.15;;;10.27;;
34278;SDS011;20538;51.528;9.942;2022-08-19T01:41:03;19.20;;;11.55;;
34278;SDS011;20538;51.528;9.942;2022-08-19T01:43:29;17.73;;;10.82;;
34278;SDS011;20538;51.528;9.942;2022-08-19T01:45:54;19.17;;;10.50;;
34278;SDS011;20538;51.528;9.942;2022-08-19T01:48:20;19.00;;;10.43;;
34278;SDS011;20538;51.528;9.942;2022-08-19T01:50:47;18.33;;;10.98;;
34278;SDS011;20538;51.528;9.942;2022-08-19T01:53:13;17.92;;;10.63;;
34278;SDS011;20538;51.528;9.942;2022-08-19T01:55:39;21.42;;;11.10;;
34278;SDS011;20538;51.528;9.942;2022-08-19T01:58:06;17.40;;;10.15;;
34278;SDS011;20538;51.528;9.942;2022-08-19T02:00:36;19.80;;;10.77;;
34278;SDS011;20538;51.528;9.942;2022-08-19T02:03:02;16.55;;;9.00;;
34278;SDS011;20538;51.528;9.942;2022-08-19T02:05:28;15.15;;;9.90;;
34278;SDS011;20538;51.528;9.942;2022-08-19T02:07:54;23.10;;;10.82;;
34278;SDS011;20538;51.528;9.942;2022-08-19T02:10:21;14.90;;;10.30;;
34278;SDS011;20538;51.528;9.942;2022-08-19T02:12:48;27.17;;;11.07;;
34278;SDS011;20538;51.528;9.942;2022-08-19T02:15:17;16.08;;;10.63;;
34278;SDS011;20538;51.528;9.942;2022-08-19T02:17:44;17.02;;;10.05;;
34278;SDS011;20538;51.528;9.942;2022-08-19T02:20:11;15.20;;;9.32;;
34278;SDS011;20538;51.528;9.942;2022-08-19T02:22:38;19.05;;;10.57;;
34278;SDS011;20538;51.528;9.942;2022-08-19T02:25:06;14.40;;;9.95;;
34278;SDS011;20538;51.528;9.942;2022-08-19T02:27:32;18.67;;;9.20;;
34278;SDS011;20538;51.528;9.942;2022-08-19T02:29:58;19.58;;;9.73;;
34278;SDS011;20538;51.528;9.942;2022-08-19T02:32:25;14.48;;;9.63;;
34278;SDS011;20538;51.528;9.942;2022-08-19T02:34:52;14.45;;;9.65;;
34278;SDS011;20538;51.528;9.942;2022-08-19T02:37:17;17.65;;;9.65;;
34278;SDS011;20538;51.528;9.942;2022-08-19T02:40:02;16.25;;;9.38;;
34278;SDS011;20538;51.528;9.942;2022-08-19T02:42:28;14.00;;;8.70;;
34278;SDS011;20538;51.528;9.942;2022-08-19T02:44:55;16.35;;;8.88;;
34278;SDS011;20538;51.528;9.942;2022-08-19T02:47:23;15.45;;;8.68;;
34278;SDS011;20538;51.528;9.942;2022-08-19T02:49:49;13.57;;;9.25;;
34278;SDS011;20538;51.528;9.942;2022-08-19T02:52:15;15.00;;;8.57;;
34278;SDS011;20538;51.528;9.942;2022-08-19T02:54:41;16.55;;;9.30;;
34278;SDS011;20538;51.528;9.942;2022-08-19T02:57:07;13.63;;;9.18;;
34278;SDS011;20538;51.528;9.942;2022-08-19T02:59:33;14.52;;;9.00;;
34278;SDS011;20538;51.528;9.942;2022-08-19T03:01:59;14.93;;;9.23;;
34278;SDS011;20538;51.528;9.942;2022-08-19T03:04:25;16.70;;;8.70;;
34278;SDS011;20538;51.528;9.942;2022-08-19T03:06:50;15.32;;;9.27;;
34278;SDS011;20538;51.528;9.942;2022-08-19T03:09:18;15.75;;;8.98;;
34278;SDS011;20538;51.528;9.942;2022-08-19T03:11:44;18.23;;;9.35;;
34278;SDS011;20538;51.528;9.942;2022-08-19T03:14:10;17.77;;;8.88;;
34278;SDS011;20538;51.528;9.942;2022-08-19T03:16:41;15.90;;;9.40;;
34278;SDS011;20538;51.528;9.942;2022-08-19T03:19:09;17.10;;;9.43;;
34278;SDS011;20538;51.528;9.942;2022-08-19T03:21:35;20.80;;;8.90;;
34278;SDS011;20538;51.528;9.942;2022-08-19T03:24:02;11.77;;;8.60;;
34278;SDS011;20538;51.528;9.942;2022-08-19T03:26:31;16.63;;;9.75;;
34278;SDS011;20538;51.528;9.942;2022-08-19T03:28:57;16.50;;;9.43;;
34278;SDS011;20538;51.528;9.942;2022-08-19T03:31:26;14.93;;;9.43;;
34278;SDS011;20538;51.528;9.942;2022-08-19T03:33:52;12.63;;;8.82;;
34278;SDS011;20538;51.528;9.942;2022-08-19T03:36:19;14.48;;;8.88;;
34278;SDS011;20538;51.528;9.942;2022-08-19T03:38:49;15.38;;;8.30;;
34278;SDS011;20538;51.528;9.942;2022-08-19T03:41:18;12.75;;;8.40;;
34278;SDS011;20538;51.528;9.942;2022-08-19T03:43:46;13.57;;;8.20;;
34278;SDS011;20538;51.528;9.942;2022-08-19T03:46:14;12.50;;;8.00;;
34278;SDS011;20538;51.528;9.942;2022-08-19T03:48:42;14.40;;;7.82;;
34278;SDS011;20538;51.528;9.942;2022-08-19T03:51:22;14.48;;;7.55;;
34278;SDS011;20538;51.528;9.942;2022-08-19T03:53:59;10.40;;;6.55;;
34278;SDS011;20538;51.528;9.942;2022-08-19T03:56:26;12.20;;;6.15;;
34278;SDS011;20538;51.528;9.942;2022-08-19T03:58:53;9.18;;;5.85;;
34278;SDS011;20538;51.528;9.942;2022-08-19T04:01:21;10.88;;;5.28;;
34278;SDS011;20538;51.528;9.942;2022-08-19T04:03:48;6.90;;;4.90;;
34278;SDS011;20538;51.528;9.942;2022-08-19T04:08:51;7.80;;;4.97;;
34278;SDS011;20538;51.528;9.942;2022-08-19T04:11:20;9.18;;;5.03;;
34278;SDS011;20538;51.528;9.942;2022-08-19T04:13:49;9.82;;;5.57;;
34278;SDS011;20538;51.528;9.942;2022-08-19T04:16:16;9.73;;;5.57;;
34278;SDS011;20538;51.528;9.942;2022-08-19T04:18:42;10.32;;;4.70;;
34278;SDS011;20538;51.528;9.942;2022-08-19T04:21:08;8.75;;;5.32;;
34278;SDS011;20538;51.528;9.942;2022-08-19T04:23:41;9.18;;;5.47;;
34278;SDS011;20538;51.528;9.942;2022-08-19T04:26:07;8.20;;;5.43;;
34278;SDS011;20538;51.528;9.942;2022-08-19T04:28:42;11.93;;;6.35;;
34278;SDS011;20538;51.528;9.942;2022-08-19T04:31:12;11.90;;;5.88;;
34278;SDS011;20538;51.528;9.942;2022-08-19T04:33:42;8.65;;;5.28;;
34278;SDS011;20538;51.528;9.942;2022-08-19T04:36:15;13.27;;;6.47;;
34278;SDS011;20538;51.528;9.942;2022-08-19T04:38:44;12.68;;;5.82;;
34278;SDS011;20538;51.528;9.942;2022-08-19T04:41:10;7.97;;;5.95;;
34278;SDS011;20538;51.528;9.942;2022-08-19T04:43:54;8.52;;;5.57;;
34278;SDS011;20538;51.528;9.942;2022-08-19T04:46:20;7.70;;;5.13;;
34278;SDS011;20538;51.528;9.942;2022-08-19T04:48:45;9.38;;;5.95;;
34278;SDS011;20538;51.528;9.942;2022-08-19T04:51:11;8.55;;;5.20;;
34278;SDS011;20538;51.528;9.942;2022-08-19T04:53:38;7.90;;;4.68;;
34278;SDS011;20538;51.528;9.942;2022-08-19T04:56:15;7.03;;;4.95;;
34278;SDS011;20538;51.528;9.942;2022-08-19T04:58:42;13.23;;;5.88;;
34278;SDS011;20538;51.528;9.942;2022-08-19T05:01:11;8.63;;;5.10;;
34278;SDS011;20538;51.528;9.942;2022-08-19T05:03:45;11.38;;;5.47;;
34278;SDS011;20538;51.528;9.942;2022-08-19T05:06:12;10.50;;;5.80;;
34278;SDS011;20538;51.528;9.942;2022-08-19T05:08:40;9.88;;;5.90;;
34278;SDS011;20538;51.528;9.942;2022-08-19T05:11:12;8.38;;;5.50;;
34278;SDS011;20538;51.528;9.942;2022-08-19T05:13:41;9.32;;;4.88;;
34278;SDS011;20538;51.528;9.942;2022-08-19T05:16:07;7.63;;;5.03;;
34278;SDS011;20538;51.528;9.942;2022-08-19T05:18:35;12.88;;;5.72;;
34278;SDS011;20538;51.528;9.942;2022-08-19T05:21:20;10.35;;;5.20;;
34278;SDS011;20538;51.528;9.942;2022-08-19T05:24:05;10.63;;;5.20;;
34278;SDS011;20538;51.528;9.942;2022-08-19T05:26:41;8.25;;;4.25;;
34278;SDS011;20538;51.528;9.942;2022-08-19T05:29:11;9.13;;;3.78;;
34278;SDS011;20538;51.528;9.942;2022-08-19T05:31:38;6.85;;;3.60;;
34278;SDS011;20538;51.528;9.942;2022-08-19T05:34:04;10.05;;;4.30;;
34278;SDS011;20538;51.528;9.942;2022-08-19T05:36:33;7.00;;;3.53;;
34278;SDS011;20538;51.528;9.942;2022-08-19T05:39:02;8.85;;;3.28;;
34278;SDS011;20538;51.528;9.942;2022-08-19T05:41:28;8.35;;;3.70;;
34278;SDS011;20538;51.528;9.942;2022-08-19T05:43:58;5.85;;;3.85;;
34278;SDS011;20538;51.528;9.942;2022-08-19T05:46:26;4.97;;;3.33;;
34278;SDS011;20538;51.528;9.942;2022-08-19T05:48:52;4.88;;;3.45;;
34278;SDS011;20538;51.528;9.942;2022-08-19T05:51:21;4.93;;;3.25;;
34278;SDS011;20538;51.528;9.942;2022-08-19T05:53:47;5.30;;;3.13;;
34278;SDS011;20538;51.528;9.942;2022-08-19T05:56:15;5.88;;;2.90;;
34278;SDS011;20538;51.528;9.942;2022-08-19T05:58:42;4.63;;;3.05;;
34278;SDS011;20538;51.528;9.942;2022-08-19T06:01:11;10.43;;;3.65;;
34278;SDS011;20538;51.528;9.942;2022-08-19T06:03:39;6.28;;;3.40;;
34278;SDS011;20538;51.528;9.942;2022-08-19T06:06:06;5.20;;;3.22;;
34278;SDS011;20538;51.528;9.942;2022-08-19T06:08:34;6.18;;;3.38;;
34278;SDS011;20538;51.528;9.942;2022-08-19T06:13:51;6.18;;;3.67;;
34278;SDS011;20538;51.528;9.942;2022-08-19T06:16:19;5.50;;;3.90;;
34278;SDS011;20538;51.528;9.942;2022-08-19T06:18:50;7.13;;;3.72;;
34278;SDS011;20538;51.528;9.942;2022-08-19T06:21:21;6.88;;;3.63;;
34278;SDS011;20538;51.528;9.942;2022-08-19T06:23:48;6.80;;;3.80;;
34278;SDS011;20538;51.528;9.942;2022-08-19T06:26:17;8.98;;;3.83;;
34278;SDS011;20538;51.528;9.942;2022-08-19T06:28:44;5.78;;;3.42;;
34278;SDS011;20538;51.528;9.942;2022-08-19T06:31:14;7.07;;;3.53;;
34278;SDS011;20538;51.528;9.942;2022-08-19T06:33:41;5.28;;;3.35;;
34278;SDS011;20538;51.528;9.942;2022-08-19T06:36:15;5.07;;;2.85;;
34278;SDS011;20538;51.528;9.942;2022-08-19T06:39:02;7.45;;;3.13;;
34278;SDS011;20538;51.528;9.942;2022-08-19T06:41:31;5.13;;;2.95;;
34278;SDS011;20538;51.528;9.942;2022-08-19T06:44:00;4.93;;;3.30;;
34278;SDS011;20538;51.528;9.942;2022-08-19T06:46:26;6.30;;;3.00;;
34278;SDS011;20538;51.528;9.942;2022-08-19T06:48:52;5.18;;;2.75;;
34278;SDS011;20538;51.528;9.942;2022-08-19T06:51:19;3.72;;;2.78;;
34278;SDS011;20538;51.528;9.942;2022-08-19T06:53:48;6.20;;;3.00;;
34278;SDS011;20538;51.528;9.942;2022-08-19T06:56:16;4.53;;;2.70;;
34278;SDS011;20538;51.528;9.942;2022-08-19T06:58:46;4.30;;;2.75;;
34278;SDS011;20538;51.528;9.942;2022-08-19T07:01:13;5.20;;;2.95;;
34278;SDS011;20538;51.528;9.942;2022-08-19T07:03:39;8.80;;;2.80;;
34278;SDS011;20538;51.528;9.942;2022-08-19T07:06:06;5.35;;;2.47;;
34278;SDS011;20538;51.528;9.942;2022-08-19T07:08:33;4.28;;;2.70;;
34278;SDS011;20538;51.528;9.942;2022-08-19T07:11:01;4.82;;;2.85;;
34278;SDS011;20538;51.528;9.942;2022-08-19T07:13:30;9.13;;;3.35;;
34278;SDS011;20538;51.528;9.942;2022-08-19T07:15:58;8.77;;;2.75;;
34278;SDS011;20538;51.528;9.942;2022-08-19T07:18:27;17.27;;;3.22;;
34278;SDS011;20538;51.528;9.942;2022-08-19T07:21:01;21.30;;;4.07;;
34278;SDS011;20538;51.528;9.942;2022-08-19T07:23:29;10.23;;;2.70;;
34278;SDS011;20538;51.528;9.942;2022-08-19T07:25:54;6.55;;;2.90;;
34278;SDS011;20538;51.528;9.942;2022-08-19T07:28:20;4.05;;;2.45;;
34278;SDS011;20538;51.528;9.942;2022-08-19T07:30:47;4.50;;;2.40;;
34278;SDS011;20538;51.528;9.942;2022-08-19T07:33:14;4.90;;;2.60;;
34278;SDS011;20538;51.528;9.942;2022-08-19T07:35:43;3.97;;;2.53;;
34278;SDS011;20538;51.528;9.942;2022-08-19T07:38:08;5.97;;;2.55;;
34278;SDS011;20538;51.528;9.942;2022-08-19T07:40:35;5.00;;;2.80;;
34278;SDS011;20538;51.528;9.942;2022-08-19T07:43:00;4.78;;;2.90;;
34278;SDS011;20538;51.528;9.942;2022-08-19T07:45:26;4.72;;;2.70;;
34278;SDS011;20538;51.528;9.942;2022-08-19T07:47:53;4.13;;;2.80;;
34278;SDS011;20538;51.528;9.942;2022-08-19T07:50:20;3.50;;;2.28;;
34278;SDS011;20538;51.528;9.942;2022-08-19T07:52:46;5.53;;;2.83;;
34278;SDS011;20538;51.528;9.942;2022-08-19T07:55:14;5.38;;;2.85;;
34278;SDS011;20538;51.528;9.942;2022-08-19T07:57:42;5.93;;;3.17;;
34278;SDS011;20538;51.528;9.942;2022-08-19T08:00:08;5.35;;;2.92;;
34278;SDS011;20538;51.528;9.942;2022-08-19T08:02:34;5.13;;;2.80;;
34278;SDS011;20538;51.528;9.942;2022-08-19T08:05:00;4.10;;;2.85;;
34278;SDS011;20538;51.528;9.942;2022-08-19T08:07:44;34.97;;;5.35;;
34278;SDS011;20538;51.528;9.942;2022-08-19T08:10:28;6.72;;;3.47;;
34278;SDS011;20538;51.528;9.942;2022-08-19T08:12:54;5.28;;;2.70;;
34278;SDS011;20538;51.528;9.942;2022-08-19T08:15:20;8.27;;;2.78;;
34278;SDS011;20538;51.528;9.942;2022-08-19T08:17:46;4.15;;;2.60;;
34278;SDS011;20538;51.528;9.942;2022-08-19T08:20:12;6.30;;;3.22;;
34278;SDS011;20538;51.528;9.942;2022-08-19T08:22:42;7.70;;;3.08;;
34278;SDS011;20538;51.528;9.942;2022-08-19T08:25:28;3.53;;;2.80;;
34278;SDS011;20538;51.528;9.942;2022-08-19T08:27:54;9.77;;;3.47;;
34278;SDS011;20538;51.528;9.942;2022-08-19T08:30:23;3.70;;;2.42;;
34278;SDS011;20538;51.528;9.942;2022-08-19T08:32:50;5.10;;;2.88;;
34278;SDS011;20538;51.528;9.942;2022-08-19T08:35:17;5.90;;;2.97;;
34278;SDS011;20538;51.528;9.942;2022-08-19T08:37:46;5.75;;;3.17;;
34278;SDS011;20538;51.528;9.942;2022-08-19T08:40:28;5.55;;;2.90;;
34278;SDS011;20538;51.528;9.942;2022-08-19T08:45:38;5.85;;;2.85;;
34278;SDS011;20538;51.528;9.942;2022-08-19T08:51:26;5.38;;;2.65;;
34278;SDS011;20538;51.528;9.942;2022-08-19T08:53:58;6.28;;;2.97;;
34278;SDS011;20538;51.528;9.942;2022-08-19T08:56:25;5.82;;;2.85;;
34278;SDS011;20538;51.528;9.942;2022-08-19T08:58:54;6.65;;;2.78;;
34278;SDS011;20538;51.528;9.942;2022-08-19T09:01:28;4.65;;;2.33;;
34278;SDS011;20538;51.528;9.942;2022-08-19T09:03:54;4.70;;;2.28;;
34278;SDS011;20538;51.528;9.942;2022-08-19T09:17:20;4.68;;;2.70;;
34278;SDS011;20538;51.528;9.942;2022-08-19T09:20:15;6.18;;;3.00;;
34278;SDS011;20538;51.528;9.942;2022-08-19T09:22:45;5.07;;;2.35;;
34278;SDS011;20538;51.528;9.942;2022-08-19T09:25:13;4.53;;;2.92;;
34278;SDS011;20538;51.528;9.942;2022-08-19T09:27:41;4.88;;;2.92;;
34278;SDS011;20538;51.528;9.942;2022-08-19T09:30:08;4.68;;;2.65;;
34278;SDS011;20538;51.528;9.942;2022-08-19T09:32:40;11.75;;;3.92;;
34278;SDS011;20538;51.528;9.942;2022-08-19T09:35:07;3.85;;;2.35;;
34278;SDS011;20538;51.528;9.942;2022-08-19T09:37:33;5.13;;;2.85;;
34278;SDS011;20538;51.528;9.942;2022-08-19T09:39:59;5.55;;;2.80;;
34278;SDS011;20538;51.528;9.942;2022-08-19T09:42:25;7.45;;;3.35;;
34278;SDS011;20538;51.528;9.942;2022-08-19T09:44:50;6.20;;;2.90;;
34278;SDS011;20538;51.528;9.942;2022-08-19T09:47:16;5.47;;;2.78;;
34278;SDS011;20538;51.528;9.942;2022-08-19T09:49:41;28.23;;;5.65;;
34278;SDS011;20538;51.528;9.942;2022-08-19T09:52:11;6.32;;;2.80;;
34278;SDS011;20538;51.528;9.942;2022-08-19T09:54:37;8.38;;;2.60;;
34278;SDS011;20538;51.528;9.942;2022-08-19T09:57:03;4.43;;;2.80;;
34278;SDS011;20538;51.528;9.942;2022-08-19T09:59:29;5.10;;;2.50;;
34278;SDS011;20538;51.528;9.942;2022-08-19T10:01:55;9.95;;;3.55;;
34278;SDS011;20538;51.528;9.942;2022-08-19T10:04:21;5.72;;;2.25;;
34278;SDS011;20538;51.528;9.942;2022-08-19T10:07:10;4.80;;;2.53;;
34278;SDS011;20538;51.528;9.942;2022-08-19T10:09:36;2.38;;;1.88;;
34278;SDS011;20538;51.528;9.942;2022-08-19T10:12:03;5.03;;;2.50;;
34278;SDS011;20538;51.528;9.942;2022-08-19T10:14:29;4.70;;;2.20;;
34278;SDS011;20538;51.528;9.942;2022-08-19T10:16:56;5.20;;;2.17;;
34278;SDS011;20538;51.528;9.942;2022-08-19T10:19:22;4.43;;;2.30;;
34278;SDS011;20538;51.528;9.942;2022-08-19T10:21:47;4.10;;;2.47;;
34278;SDS011;20538;51.528;9.942;2022-08-19T10:24:13;4.70;;;2.67;;
34278;SDS011;20538;51.528;9.942;2022-08-19T10:26:39;106.03;;;10.25;;
34278;SDS011;20538;51.528;9.942;2022-08-19T10:29:11;5.60;;;2.47;;
34278;SDS011;20538;51.528;9.942;2022-08-19T10:31:37;9.00;;;3.25;;
34278;SDS011;20538;51.528;9.942;2022-08-19T10:34:03;5.00;;;2.30;;
34278;SDS011;20538;51.528;9.942;2022-08-19T10:36:33;5.88;;;2.38;;
34278;SDS011;20538;51.528;9.942;2022-08-19T10:39:02;20.95;;;3.78;;
34278;SDS011;20538;51.528;9.942;2022-08-19T10:41:32;77.20;;;8.27;;
34278;SDS011;20538;51.528;9.942;2022-08-19T10:44:00;6.90;;;2.33;;
34278;SDS011;20538;51.528;9.942;2022-08-19T10:46:32;3.35;;;1.92;;
34278;SDS011;20538;51.528;9.942;2022-08-19T10:49:01;5.15;;;2.35;;
34278;SDS011;20538;51.528;9.942;2022-08-19T10:51:28;53.83;;;6.15;;
34278;SDS011;20538;51.528;9.942;2022-08-19T10:54:12;4.30;;;2.50;;
34278;SDS011;20538;51.528;9.942;2022-08-19T10:56:38;14.05;;;3.28;;
34278;SDS011;20538;51.528;9.942;2022-08-19T10:59:16;239.52;;;23.42;;
34278;SDS011;20538;51.528;9.942;2022-08-19T11:01:47;15.45;;;3.00;;
34278;SDS011;20538;51.528;9.942;2022-08-19T11:04:14;21.25;;;3.17;;
34278;SDS011;20538;51.528;9.942;2022-08-19T11:06:42;2.72;;;2.22;;
34278;SDS011;20538;51.528;9.942;2022-08-19T11:09:10;3.08;;;2.13;;
34278;SDS011;20538;51.528;9.942;2022-08-19T11:11:36;18.60;;;3.15;;
34278;SDS011;20538;51.528;9.942;2022-08-19T11:14:15;10.07;;;2.67;;
34278;SDS011;20538;51.528;9.942;2022-08-19T11:16:43;3.38;;;1.95;;
34278;SDS011;20538;51.528;9.942;2022-08-19T11:19:10;3.97;;;1.85;;
34278;SDS011;20538;51.528;9.942;2022-08-19T11:21:39;3.30;;;2.13;;
34278;SDS011;20538;51.528;9.942;2022-08-19T11:24:08;3.83;;;1.88;;
34278;SDS011;20538;51.528;9.942;2022-08-19T11:26:36;6.60;;;2.13;;
34278;SDS011;20538;51.528;9.942;2022-08-19T11:29:03;3.40;;;2.10;;
34278;SDS011;20538;51.528;9.942;2022-08-19T11:31:34;2.65;;;1.77;;
34278;SDS011;20538;51.528;9.942;2022-08-19T11:34:02;3.83;;;2.25;;
34278;SDS011;20538;51.528;9.942;2022-08-19T11:36:30;3.92;;;1.70;;
34278;SDS011;20538;51.528;9.942;2022-08-19T11:38:57;5.32;;;2.00;;
34278;SDS011;20538;51.528;9.942;2022-08-19T11:41:23;2.35;;;1.70;;
34278;SDS011;20538;51.528;9.942;2022-08-19T11:43:50;3.22;;;1.67;;
34278;SDS011;20538;51.528;9.942;2022-08-19T11:46:17;2.03;;;1.75;;
34278;SDS011;20538;51.528;9.942;2022-08-19T11:48:43;1.92;;;1.55;;
34278;SDS011;20538;51.528;9.942;2022-08-19T11:51:12;3.83;;;1.88;;
34278;SDS011;20538;51.528;9.942;2022-08-19T11:53:39;2.35;;;1.90;;
34278;SDS011;20538;51.528;9.942;2022-08-19T11:56:05;2.45;;;1.73;;
34278;SDS011;20538;51.528;9.942;2022-08-19T11:58:33;2.20;;;1.67;;
34278;SDS011;20538;51.528;9.942;2022-08-19T12:00:59;2.50;;;1.73;;
34278;SDS011;20538;51.528;9.942;2022-08-19T12:03:25;4.63;;;2.00;;
34278;SDS011;20538;51.528;9.942;2022-08-19T12:05:51;2.45;;;1.50;;
34278;SDS011;20538;51.528;9.942;2022-08-19T12:08:17;3.30;;;1.70;;
34278;SDS011;20538;51.528;9.942;2022-08-19T12:10:43;3.50;;;1.83;;
34278;SDS011;20538;51.528;9.942;2022-08-19T12:13:13;2.70;;;2.00;;
34278;SDS011;20538;51.528;9.942;2022-08-19T12:15:44;3.72;;;1.65;;
34278;SDS011;20538;51.528;9.942;2022-08-19T12:18:11;2.17;;;1.48;;
34278;SDS011;20538;51.528;9.942;2022-08-19T12:20:39;2.05;;;1.70;;
34278;SDS011;20538;51.528;9.942;2022-08-19T12:23:07;3.78;;;1.98;;
34278;SDS011;20538;51.528;9.942;2022-08-19T12:25:34;3.42;;;1.92;;
34278;SDS011;20538;51.528;9.942;2022-08-19T12:28:01;2.13;;;1.73;;
34278;SDS011;20538;51.528;9.942;2022-08-19T12:30:28;3.47;;;2.03;;
34278;SDS011;20538;51.528;9.942;2022-08-19T12:32:54;2.42;;;1.77;;
34278;SDS011;20538;51.528;9.942;2022-08-19T12:35:19;2.10;;;1.50;;
34278;SDS011;20538;51.528;9.942;2022-08-19T12:37:46;5.22;;;1.80;;
34278;SDS011;20538;51.528;9.942;2022-08-19T12:40:14;2.35;;;2.15;;
34278;SDS011;20538;51.528;9.942;2022-08-19T12:42:42;1.88;;;1.65;;
34278;SDS011;20538;51.528;9.942;2022-08-19T12:45:12;2.40;;;1.92;;
34278;SDS011;20538;51.528;9.942;2022-08-19T12:47:38;3.40;;;1.92;;
34278;SDS011;20538;51.528;9.942;2022-08-19T12:50:04;2.97;;;1.80;;
34278;SDS011;20538;51.528;9.942;2022-08-19T12:52:33;3.60;;;2.03;;
34278;SDS011;20538;51.528;9.942;2022-08-19T12:55:02;3.08;;;1.77;;
34278;SDS011;20538;51.528;9.942;2022-08-19T12:57:29;5.03;;;1.90;;
34278;SDS011;20538;51.528;9.942;2022-08-19T12:59:58;3.28;;;2.17;;
34278;SDS011;20538;51.528;9.942;2022-08-19T13:02:33;2.20;;;1.60;;
34278;SDS011;20538;51.528;9.942;2022-08-19T13:05:00;2.42;;;1.85;;
34278;SDS011;20538;51.528;9.942;2022-08-19T13:07:25;5.28;;;1.85;;
34278;SDS011;20538;51.528;9.942;2022-08-19T13:09:51;2.15;;;1.90;;
34278;SDS011;20538;51.528;9.942;2022-08-19T13:12:18;4.35;;;1.90;;
34278;SDS011;20538;51.528;9.942;2022-08-19T13:14:45;2.40;;;1.65;;
34278;SDS011;20538;51.528;9.942;2022-08-19T13:17:15;3.92;;;1.63;;
34278;SDS011;20538;51.528;9.942;2022-08-19T13:19:40;3.90;;;1.67;;
34278;SDS011;20538;51.528;9.942;2022-08-19T13:22:06;1.70;;;1.60;;
34278;SDS011;20538;51.528;9.942;2022-08-19T13:24:32;1.65;;;1.40;;
34278;SDS011;20538;51.528;9.942;2022-08-19T13:26:58;1.98;;;1.38;;
34278;SDS011;20538;51.528;9.942;2022-08-19T13:29:27;2.70;;;1.40;;
34278;SDS011;20538;51.528;9.942;2022-08-19T13:32:11;2.00;;;1.80;;
34278;SDS011;20538;51.528;9.942;2022-08-19T13:34:55;2.65;;;1.98;;
34278;SDS011;20538;51.528;9.942;2022-08-19T13:37:21;2.10;;;1.83;;
34278;SDS011;20538;51.528;9.942;2022-08-19T13:40:06;3.25;;;1.60;;
34278;SDS011;20538;51.528;9.942;2022-08-19T13:42:36;1.67;;;1.40;;
34278;SDS011;20538;51.528;9.942;2022-08-19T13:45:02;1.73;;;1.63;;
34278;SDS011;20538;51.528;9.942;2022-08-19T13:47:28;2.38;;;1.70;;
34278;SDS011;20538;51.528;9.942;2022-08-19T13:49:53;1.40;;;1.30;;
34278;SDS011;20538;51.528;9.942;2022-08-19T13:52:19;3.22;;;1.50;;
34278;SDS011;20538;51.528;9.942;2022-08-19T13:54:44;2.97;;;1.50;;
34278;SDS011;20538;51.528;9.942;2022-08-19T13:57:10;1.50;;;1.40;;
34278;SDS011;20538;51.528;9.942;2022-08-19T13:59:37;1.25;;;1.15;;
34278;SDS011;20538;51.528;9.942;2022-08-19T14:02:03;1.80;;;1.50;;
34278;SDS011;20538;51.528;9.942;2022-08-19T14:04:30;2.90;;;1.58;;
34278;SDS011;20538;51.528;9.942;2022-08-19T14:06:56;2.80;;;1.92;;
34278;SDS011;20538;51.528;9.942;2022-08-19T14:09:21;2.17;;;1.70;;
34278;SDS011;20538;51.528;9.942;2022-08-19T14:11:47;2.17;;;1.80;;
34278;SDS011;20538;51.528;9.942;2022-08-19T14:14:12;2.70;;;1.80;;
34278;SDS011;20538;51.528;9.942;2022-08-19T14:16:38;3.28;;;1.58;;
34278;SDS011;20538;51.528;9.942;2022-08-19T14:19:04;2.85;;;1.67;;
34278;SDS011;20538;51.528;9.942;2022-08-19T14:21:29;1.65;;;1.55;;
34278;SDS011;20538;51.528;9.942;2022-08-19T14:23:55;4.65;;;2.00;;
34278;SDS011;20538;51.528;9.942;2022-08-19T14:26:21;4.13;;;1.85;;
34278;SDS011;20538;51.528;9.942;2022-08-19T14:28:47;2.20;;;2.00;;
34278;SDS011;20538;51.528;9.942;2022-08-19T14:31:14;2.08;;;1.50;;
34278;SDS011;20538;51.528;9.942;2022-08-19T14:33:43;3.15;;;2.00;;
34278;SDS011;20538;51.528;9.942;2022-08-19T14:36:12;2.78;;;1.77;;
34278;SDS011;20538;51.528;9.942;2022-08-19T14:38:38;1.75;;;1.65;;
34278;SDS011;20538;51.528;9.942;2022-08-19T14:41:23;1.63;;;1.50;;
34278;SDS011;20538;51.528;9.942;2022-08-19T14:43:50;2.28;;;2.00;;
34278;SDS011;20538;51.528;9.942;2022-08-19T14:46:18;3.97;;;2.13;;
34278;SDS011;20538;51.528;9.942;2022-08-19T14:48:46;2.38;;;1.90;;
34278;SDS011;20538;51.528;9.942;2022-08-19T14:51:12;4.72;;;2.05;;
34278;SDS011;20538;51.528;9.942;2022-08-19T14:53:39;3.22;;;1.60;;
34278;SDS011;20538;51.528;9.942;2022-08-19T14:56:09;3.85;;;2.20;;
34278;SDS011;20538;51.528;9.942;2022-08-19T14:58:40;2.10;;;1.80;;
34278;SDS011;20538;51.528;9.942;2022-08-19T15:01:07;3.78;;;2.00;;
34278;SDS011;20538;51.528;9.942;2022-08-19T15:03:33;4.55;;;2.03;;
34278;SDS011;20538;51.528;9.942;2022-08-19T15:06:00;3.85;;;2.20;;
34278;SDS011;20538;51.528;9.942;2022-08-19T15:08:28;4.10;;;1.83;;